Meteo Giornale » Osservazioni meteo Spagna » Calamocha
ore: 21:00 - Osservazioni Meteo Calamocha
Lat. 40° 56' N Lon. 1° 18' W Alt. 890 metri s.l.m.
23 °C
Sereno
Temp. 24 Ore
18 °C
28 °C
Est/Sud-Est
7.4 Km/h
Dew point 20 °C
Umidità 83 %
Visibilità 10 Km
Il sole sorge alle ore 07:31
Il sole tramonta alle ore 20:39
| Data e Ora | Cielo e Fenomeni | T °C | DP °C | Um. % | Pres. hPa | Vis. km | Vento km/h | |
|---|---|---|---|---|---|---|---|---|
| Oggi h: 21:00 | Sereno | 23 | 20 | 83 | 1019 | 10 | E/SE 7.4 | |
| Oggi h: 20:30 | Sereno | 24 | 20 | 78 | 1019 | 10 | E/SE 9.3 | |
| Oggi h: 20:00 | Sereno | 25 | 20 | 73 | 1019 | 10 | E/SE 9.3 | |
| Oggi h: 19:30 | Sereno | 26 | 20 | 69 | 1019 | 10 | E/SE 13 | |
| Oggi h: 19:00 | Sereno | 26 | 20 | 69 | 1019 | 10 | E/SE 13 | |
| Oggi h: 18:30 | Poco Nuvoloso | 27 | 19 | 61 | 1019 | 10 | SE 11.1 | |
| Oggi h: 18:00 | Sereno | 27 | 20 | 65 | 1019 | 10 | E/SE 16.7 | |
| Oggi h: 17:30 | Poco Nuvoloso | 27 | 19 | 61 | 1020 | 9 | S/SE 16.7 | |
| Oggi h: 17:00 | Nuvoloso | 27 | 19 | 61 | 1020 | 10 | E/SE 16.7 | |
| Oggi h: 16:30 | Molto Nuvoloso | 27 | 19 | 61 | 1020 | 10 | E/SE 18.5 | |
| Oggi h: 16:00 | Molto Nuvoloso | 27 | 20 | 65 | 1020 | 10 | E/SE 20.3 | |
| Oggi h: 15:30 | Nuvoloso | 26 | 20 | 69 | 1020 | 10 | E/SE 20.3 | |
| Oggi h: 15:00 | Nuvoloso | 27 | 20 | 65 | 1020 | 10 | SE 20.3 | |
| Oggi h: 14:30 | Poco Nuvoloso | 28 | 20 | 61 | 1020 | 10 | SE 18.5 | |
| Oggi h: 14:00 | Poco Nuvoloso | 27 | 19 | 61 | 1021 | 9 | SE 20.3 | |
| Oggi h: 13:30 | Nuvoloso | 26 | 19 | 65 | 1021 | 10 | E/SE 18.5 | |
| Oggi h: 13:00 | Nuvoloso | 26 | 20 | 69 | 1021 | 10 | SE 20.3 | |
| Oggi h: 12:30 | Sereno | 27 | 20 | 65 | 1020 | 9 | E/SE 14.8 | |
| Oggi h: 12:00 | Poco Nuvoloso | 27 | 20 | 65 | 1020 | 10 | E/SE 13 | |
| Oggi h: 11:30 | Sereno | 27 | 17 | 54 | 1020 | 10 | E 11.1 | |
| Oggi h: 11:00 | Sereno | 26 | 18 | 61 | 1020 | 10 | E 13 | |
| Oggi h: 10:30 | Sereno | 26 | 18 | 61 | 1020 | 10 | E/NE 14.8 | |
| Oggi h: 10:00 | Sereno | 25 | 14 | 50 | 1019 | 10 | N/NE 14.8 | |
| Oggi h: 09:30 | Sereno | 23 | 16 | 64 | 1019 | 10 | N/NE 13 | |
| Oggi h: 09:00 | Sereno | 22 | 17 | 73 | 1019 | 10 | N/NE 9.3 | |
| Oggi h: 08:30 | Sereno | 20 | 17 | 82 | 1019 | 9 | N/NE 11.1 | |
| Oggi h: 08:00 | Sereno | 19 | 15 | 77 | 1019 | 9 | N/NE 11.1 | |
| Oggi h: 07:30 | Sereno | 18 | 14 | 77 | 1018 | 10 | N/NE 11.1 | |
| Oggi h: 07:00 | Sereno | 18 | 14 | 77 | 1018 | 10 | N/NE 11.1 | |
| Oggi h: 06:30 | Nuvoloso | 19 | 15 | 77 | 1018 | 10 | N/NE 13 | |
| Oggi h: 06:00 | Molto Nuvoloso | 19 | 16 | 82 | 1018 | 9 | N/NE 11.1 | |
| Oggi h: 05:30 | Nuvoloso | 18 | 15 | 82 | 1018 | 10 | N/NE 13 | |
| Oggi h: 05:00 | Poco Nuvoloso | 18 | 15 | 82 | 1018 | 9 | N 5.5 | |
| Oggi h: 04:30 | Sereno | 18 | 16 | 88 | 1018 | 10 | N 0 | |
| Oggi h: 04:00 | Sereno | 18 | 16 | 88 | 1018 | 10 | N 0 | |
| Oggi h: 03:30 | Sereno | 19 | 16 | 82 | 1018 | 10 | N 3.7 | |
| Oggi h: 03:00 | Sereno | 19 | 17 | 88 | 1018 | 10 | N 5.5 | |
| Oggi h: 02:30 | Sereno | 19 | 17 | 88 | 1018 | 10 | N 5.5 | |
| Oggi h: 02:00 | Sereno | 20 | 18 | 88 | 1018 | 10 | N 3.7 | |
| Oggi h: 01:30 | Sereno | 20 | 19 | 93 | 1018 | 10 | N 1.8 | |
| Oggi h: 01:00 | Sereno | 20 | 18 | 88 | 1018 | 10 | N 0 | |
| Oggi h: 00:30 | Sereno | 20 | 18 | 88 | 1018 | 10 | N 1.8 | |
| Oggi h: 00:00 | Sereno | 20 | 19 | 93 | 1018 | 10 | N 1.8 | |
| Ieri h: 23:30 | Sereno | 20 | 19 | 93 | 1018 | 9 | N 3.7 | |
| Ieri h: 23:00 | Sereno | 21 | 19 | 88 | 1018 | 10 | N 5.5 | |
| Ieri h: 22:30 | Sereno | 22 | 20 | 88 | 1018 | 10 | NE 7.4 | |
| Ieri h: 22:00 | Sereno | 22 | 20 | 88 | 1018 | 9 | NE 7.4 | |



